createdAt,value
2019-01-11T00:00:12.507Z,13.87
2019-01-11T00:02:41.894Z,11.70
2019-01-11T00:05:11.398Z,15.60
2019-01-11T00:07:41.482Z,14.90
2019-01-11T00:10:10.803Z,17.07
2019-01-11T00:12:40.151Z,15.87
2019-01-11T00:15:09.603Z,18.30
2019-01-11T00:17:39.274Z,17.40
2019-01-11T00:20:08.998Z,20.00
2019-01-11T00:22:38.340Z,16.63
2019-01-11T00:25:08.440Z,16.13
2019-01-11T00:27:37.757Z,15.93
2019-01-11T00:30:08.149Z,15.27
2019-01-11T00:32:37.526Z,12.30
2019-01-11T00:35:07.267Z,11.13
2019-01-11T00:37:36.710Z,12.90
2019-01-11T00:40:07.190Z,11.33
2019-01-11T00:42:36.523Z,13.10
2019-01-11T00:45:06.330Z,12.93
2019-01-11T00:47:36.065Z,17.00
2019-01-11T00:50:05.943Z,14.47
2019-01-11T00:52:35.334Z,14.10
2019-01-11T00:55:06.116Z,22.77
2019-01-11T00:57:35.521Z,26.57
2019-01-11T01:00:06.621Z,27.03
2019-01-11T01:02:35.971Z,25.83
2019-01-11T01:05:06.046Z,24.20
2019-01-11T01:07:35.850Z,23.87
2019-01-11T01:10:05.898Z,26.90
2019-01-11T01:12:35.341Z,23.50
2019-01-11T01:15:06.951Z,26.33
2019-01-11T01:17:36.657Z,26.43
2019-01-11T01:20:07.604Z,22.27
2019-01-11T01:22:37.339Z,27.30
2019-01-11T01:25:06.998Z,24.27
2019-01-11T01:27:36.494Z,24.13
2019-01-11T01:30:08.644Z,32.43
2019-01-11T01:32:37.991Z,25.67
2019-01-11T01:35:07.484Z,21.73
2019-01-11T01:37:37.068Z,25.83
2019-01-11T01:40:07.743Z,23.63
2019-01-11T01:42:37.422Z,29.20
2019-01-11T01:45:08.655Z,26.03
2019-01-11T01:47:38.099Z,33.10
2019-01-11T01:50:08.216Z,27.20
2019-01-11T01:52:37.642Z,25.40
2019-01-11T01:55:08.651Z,25.40
2019-01-11T01:57:37.992Z,29.57
2019-01-11T02:00:10.212Z,26.77
2019-01-11T02:02:39.614Z,30.67
2019-01-11T02:05:09.815Z,31.37
2019-01-11T02:07:39.185Z,31.37
2019-01-11T02:10:10.540Z,30.63
2019-01-11T02:12:39.918Z,24.23
2019-01-11T02:15:10.792Z,30.97
2019-01-11T02:17:40.227Z,29.87
2019-01-11T02:20:15.667Z,32.30
2019-01-11T02:22:45.461Z,29.47
2019-01-11T02:25:15.587Z,32.40
2019-01-11T02:27:44.943Z,24.97
2019-01-11T02:30:19.467Z,26.43
2019-01-11T02:32:52.836Z,24.87
2019-01-11T02:35:20.077Z,25.33
2019-01-11T02:37:49.545Z,25.90
2019-01-11T02:40:19.219Z,28.67
2019-01-11T02:42:48.671Z,31.53
2019-01-11T02:45:19.793Z,34.23
2019-01-11T02:47:49.229Z,31.20
2019-01-11T02:50:18.774Z,25.90
2019-01-11T02:52:48.310Z,31.13
2019-01-11T02:55:17.790Z,33.23
2019-01-11T02:57:47.259Z,30.67
2019-01-11T03:00:18.805Z,33.63
2019-01-11T03:02:48.368Z,31.23
2019-01-11T03:05:18.205Z,31.93
2019-01-11T03:07:47.871Z,28.60
2019-01-11T03:10:19.344Z,33.57
2019-01-11T03:12:48.725Z,31.60
2019-01-11T03:15:19.225Z,29.37
2019-01-11T03:17:48.670Z,28.23
2019-01-11T03:20:18.534Z,28.67
2019-01-11T03:22:47.964Z,31.97
2019-01-11T03:25:17.589Z,32.80
2019-01-11T03:27:47.005Z,26.97
2019-01-11T03:30:18.473Z,27.63
2019-01-11T03:32:47.910Z,26.00
2019-01-11T03:35:18.860Z,30.67
2019-01-11T03:37:49.835Z,25.23
2019-01-11T03:40:21.625Z,34.07
2019-01-11T03:42:51.092Z,28.37
2019-01-11T03:45:21.863Z,31.40
2019-01-11T03:47:51.201Z,26.90
2019-01-11T03:50:20.928Z,30.43
2019-01-11T03:52:50.326Z,32.03
2019-01-11T03:55:19.853Z,30.07
2019-01-11T03:57:49.218Z,31.60
2019-01-11T04:00:23.451Z,34.73
2019-01-11T04:02:53.106Z,29.47
2019-01-11T04:05:22.450Z,26.87
2019-01-11T04:07:52.243Z,32.03
2019-01-11T04:10:23.631Z,35.20
2019-01-11T04:12:53.131Z,36.97
2019-01-11T04:15:23.494Z,30.43
2019-01-11T04:18:10.665Z,33.27
2019-01-11T04:20:40.044Z,30.47
2019-01-11T04:23:09.392Z,29.27
2019-01-11T04:25:43.659Z,31.27
2019-01-11T04:28:13.108Z,29.83
2019-01-11T04:30:42.802Z,32.17
2019-01-11T04:33:12.216Z,29.13
2019-01-11T04:35:41.666Z,33.83
2019-01-11T04:38:11.390Z,38.13
2019-01-11T04:40:40.803Z,31.17
2019-01-11T04:43:10.633Z,34.13
2019-01-11T04:45:40.026Z,43.07
2019-01-11T04:48:09.453Z,31.93
2019-01-11T04:50:38.816Z,35.93
2019-01-11T04:53:08.155Z,35.03
2019-01-11T04:55:37.587Z,33.83
2019-01-11T04:58:07.054Z,36.90
2019-01-11T05:00:36.782Z,40.43
2019-01-11T05:03:06.141Z,39.03
2019-01-11T05:05:35.551Z,32.93
2019-01-11T05:08:04.893Z,41.07
2019-01-11T05:10:34.440Z,34.23
2019-01-11T05:13:22.881Z,43.55
2019-01-11T05:15:52.340Z,42.27
2019-01-11T05:18:21.778Z,36.27
2019-01-11T05:20:51.168Z,37.40
2019-01-11T05:23:20.589Z,40.00
2019-01-11T05:25:49.956Z,37.73
2019-01-11T05:28:19.612Z,37.83
2019-01-11T05:30:49.037Z,42.50
2019-01-11T05:33:18.727Z,41.90
2019-01-11T05:35:48.081Z,39.60
2019-01-11T05:38:17.442Z,43.50
2019-01-11T05:40:46.927Z,39.03
2019-01-11T05:43:16.364Z,45.07
2019-01-11T05:45:45.812Z,42.90
2019-01-11T05:48:15.249Z,37.77
2019-01-11T05:50:44.704Z,38.47
2019-01-11T05:53:14.158Z,42.40
2019-01-11T05:55:50.860Z,47.15
2019-01-11T05:58:37.156Z,44.40
2019-01-11T06:01:06.697Z,39.00
2019-01-11T06:03:36.110Z,44.00
2019-01-11T06:06:06.225Z,40.97
2019-01-11T06:08:36.043Z,42.03
2019-01-11T06:11:05.538Z,40.53
2019-01-11T06:13:34.967Z,43.73
2019-01-11T06:16:04.946Z,43.67
2019-01-11T06:18:34.316Z,41.87
2019-01-11T06:21:03.744Z,46.90
2019-01-11T06:23:33.154Z,44.60
2019-01-11T06:26:02.865Z,40.77
2019-01-11T06:28:32.318Z,49.77
2019-01-11T06:31:02.000Z,46.90
2019-01-11T06:33:31.386Z,44.67
2019-01-11T06:36:00.853Z,46.57
2019-01-11T06:38:30.295Z,50.57
2019-01-11T06:40:59.644Z,42.47
2019-01-11T06:43:29.055Z,47.30
2019-01-11T06:45:58.419Z,44.90
2019-01-11T06:48:46.746Z,51.67
2019-01-11T06:51:16.729Z,46.80
2019-01-11T06:53:46.157Z,47.83
2019-01-11T06:56:15.544Z,51.67
2019-01-11T06:58:45.291Z,52.13
2019-01-11T07:01:14.988Z,45.87
2019-01-11T07:03:44.803Z,43.63
2019-01-11T07:06:14.249Z,47.17
2019-01-11T07:08:43.707Z,42.00
2019-01-11T07:11:13.088Z,38.40
2019-01-11T07:13:42.519Z,41.53
2019-01-11T07:16:11.903Z,43.10
2019-01-11T07:18:41.352Z,42.60
2019-01-11T07:21:11.075Z,39.83
2019-01-11T07:23:40.471Z,39.33
2019-01-11T07:26:09.904Z,39.33
2019-01-11T07:28:39.263Z,39.93
2019-01-11T07:31:13.568Z,42.47
2019-01-11T07:33:42.976Z,42.77
2019-01-11T07:36:28.070Z,42.50
2019-01-11T07:38:57.621Z,37.73
2019-01-11T07:41:26.946Z,40.60
2019-01-11T07:43:56.489Z,42.53
2019-01-11T07:46:26.357Z,43.23
2019-01-11T07:48:55.814Z,38.40
2019-01-11T07:51:25.318Z,39.20
2019-01-11T07:53:54.720Z,36.43
2019-01-11T07:56:24.361Z,35.70
2019-01-11T07:58:53.835Z,34.97
2019-01-11T08:01:23.216Z,36.83
2019-01-11T08:03:52.770Z,39.13
2019-01-11T08:06:23.024Z,37.17
2019-01-11T08:08:53.749Z,38.33
2019-01-11T08:11:23.260Z,31.63
2019-01-11T08:13:52.711Z,33.93
2019-01-11T08:16:22.258Z,34.23
2019-01-11T08:18:51.727Z,32.50
2019-01-11T08:21:21.303Z,35.30
2019-01-11T08:23:50.779Z,33.73
2019-01-11T08:26:20.840Z,32.67
2019-01-11T08:28:50.243Z,32.87
2019-01-11T08:31:19.707Z,27.87
2019-01-11T08:34:01.075Z,31.73
2019-01-11T08:36:30.574Z,28.10
2019-01-11T08:39:00.027Z,32.47
2019-01-11T08:41:29.473Z,30.80
2019-01-11T08:43:58.891Z,29.87
2019-01-11T08:46:28.353Z,34.07
2019-01-11T08:48:57.903Z,29.67
2019-01-11T08:51:27.405Z,33.87
2019-01-11T08:53:56.903Z,28.57
2019-01-11T08:56:26.547Z,27.23
2019-01-11T08:58:56.119Z,32.83
2019-01-11T09:01:25.797Z,27.37
2019-01-11T09:03:55.576Z,25.97
2019-01-11T09:06:25.221Z,28.17
2019-01-11T09:08:54.827Z,28.47
2019-01-11T09:11:29.098Z,31.02
2019-01-11T09:13:58.812Z,25.80
2019-01-11T09:16:28.338Z,29.27
2019-01-11T09:19:03.074Z,29.57
2019-01-11T09:21:32.750Z,25.40
2019-01-11T09:24:02.191Z,23.77
2019-01-11T09:26:31.726Z,31.80
2019-01-11T09:29:02.092Z,26.30
2019-01-11T09:31:31.555Z,25.60
2019-01-11T09:34:01.034Z,29.10
2019-01-11T09:36:30.623Z,31.30
2019-01-11T09:39:00.561Z,29.13
2019-01-11T09:41:29.887Z,28.90
2019-01-11T09:43:59.224Z,27.33
2019-01-11T09:46:28.586Z,27.63
2019-01-11T09:48:58.373Z,32.40
2019-01-11T09:51:27.750Z,31.20
2019-01-11T09:53:57.231Z,26.07
2019-01-11T09:56:26.973Z,27.70
2019-01-11T09:58:56.436Z,28.53
2019-01-11T10:01:25.847Z,27.13
2019-01-11T10:03:55.330Z,32.70
2019-01-11T10:06:24.984Z,30.03
2019-01-11T10:08:54.489Z,34.17
2019-01-11T10:11:24.096Z,30.30
2019-01-11T10:13:53.662Z,36.63
2019-01-11T10:16:23.763Z,32.67
2019-01-11T10:18:55.359Z,34.73
2019-01-11T10:21:26.282Z,34.30
2019-01-11T10:23:55.986Z,35.67
2019-01-11T10:26:25.846Z,33.07
2019-01-11T10:28:55.228Z,29.83
2019-01-11T10:31:24.957Z,35.23
2019-01-11T10:33:54.478Z,36.47
2019-01-11T10:36:24.189Z,34.93
2019-01-11T10:38:53.607Z,34.33
2019-01-11T10:41:24.018Z,28.60
2019-01-11T10:43:53.995Z,34.17
2019-01-11T10:46:37.607Z,36.77
2019-01-11T10:49:09.423Z,32.67
2019-01-11T10:51:39.369Z,37.30
2019-01-11T10:54:14.061Z,40.85
2019-01-11T10:56:43.602Z,35.50
2019-01-11T10:59:13.198Z,37.80
2019-01-11T11:01:42.802Z,36.63
2019-01-11T11:04:12.435Z,35.17
2019-01-11T11:06:41.952Z,37.60
2019-01-11T11:09:17.519Z,36.85
2019-01-11T11:11:52.739Z,36.57
2019-01-11T11:14:22.407Z,33.10
2019-01-11T11:16:54.824Z,33.97
2019-01-11T11:19:29.260Z,35.33
2019-01-11T11:21:58.728Z,38.93
2019-01-11T11:24:28.168Z,34.33
2019-01-11T11:26:57.578Z,32.00
2019-01-11T11:29:27.194Z,36.20
2019-01-11T11:31:56.802Z,33.03
2019-01-11T11:34:29.293Z,34.10
2019-01-11T11:37:00.626Z,34.70
2019-01-11T11:39:30.140Z,39.40
2019-01-11T11:42:00.375Z,36.07
2019-01-11T11:44:30.190Z,38.13
2019-01-11T11:47:02.317Z,37.03
2019-01-11T11:49:31.786Z,34.03
2019-01-11T11:52:01.354Z,42.25
2019-01-11T11:54:30.717Z,36.57
2019-01-11T11:57:00.167Z,34.70
2019-01-11T11:59:29.507Z,35.93
2019-01-11T12:01:58.979Z,39.00
2019-01-11T12:04:28.984Z,39.13
2019-01-11T12:06:58.473Z,31.50
2019-01-11T12:09:28.118Z,30.17
2019-01-11T12:11:57.567Z,35.63
2019-01-11T12:14:27.086Z,31.30
2019-01-11T12:16:57.439Z,27.53
2019-01-11T12:19:27.624Z,34.70
2019-01-11T12:22:01.727Z,33.88
2019-01-11T12:24:34.123Z,30.83
2019-01-11T12:27:03.738Z,26.87
2019-01-11T12:29:33.287Z,32.97
2019-01-11T12:34:31.375Z,28.63
2019-01-11T12:37:01.295Z,29.47
2019-01-11T12:39:31.423Z,31.87
2019-01-11T12:42:04.012Z,32.93
2019-01-11T12:44:39.848Z,30.40
2019-01-11T12:47:09.572Z,31.40
2019-01-11T12:49:39.163Z,32.47
2019-01-11T12:52:09.162Z,33.27
2019-01-11T12:54:38.655Z,32.13
2019-01-11T12:57:08.263Z,25.37
2019-01-11T12:59:37.726Z,28.60
2019-01-11T13:02:07.429Z,29.53
2019-01-11T13:04:36.775Z,32.70
2019-01-11T13:07:06.288Z,30.80
2019-01-11T13:09:35.630Z,30.90
2019-01-11T13:12:05.245Z,33.20
2019-01-11T13:14:34.732Z,31.37
2019-01-11T13:17:04.323Z,32.47
2019-01-11T13:19:34.189Z,30.87
2019-01-11T13:22:03.688Z,32.30
2019-01-11T13:24:34.829Z,28.23
2019-01-11T13:27:09.515Z,31.63
2019-01-11T13:29:45.417Z,29.17
2019-01-11T13:32:23.392Z,29.57
2019-01-11T13:35:10.663Z,32.03
2019-01-11T13:37:40.254Z,33.00
2019-01-11T13:40:24.197Z,31.93
2019-01-11T13:42:54.216Z,27.90
2019-01-11T13:45:23.855Z,30.20
2019-01-11T13:47:53.359Z,30.97
2019-01-11T13:50:37.780Z,29.37
2019-01-11T13:53:09.168Z,30.90
2019-01-11T13:55:38.653Z,28.63
2019-01-11T13:58:08.214Z,25.50
2019-01-11T14:00:38.188Z,26.03
2019-01-11T14:03:08.415Z,22.63
2019-01-11T14:05:38.055Z,25.27
2019-01-11T14:08:07.764Z,25.17
2019-01-11T14:10:37.256Z,27.33
2019-01-11T14:13:06.885Z,25.67
2019-01-11T14:15:36.267Z,24.50
2019-01-11T14:18:06.802Z,25.43
2019-01-11T14:20:36.653Z,25.80
2019-01-11T14:23:06.270Z,28.73
2019-01-11T14:25:35.896Z,25.90
2019-01-11T14:28:05.683Z,24.30
2019-01-11T14:30:35.107Z,25.97
2019-01-11T14:33:04.798Z,25.27
2019-01-11T14:35:34.237Z,27.30
2019-01-11T14:38:03.740Z,23.73
2019-01-11T14:40:33.358Z,28.63
2019-01-11T14:43:02.913Z,28.10
2019-01-11T14:45:32.383Z,23.67
2019-01-11T14:48:01.883Z,24.37
2019-01-11T14:50:31.365Z,24.43
2019-01-11T14:53:00.954Z,28.27
2019-01-11T14:55:30.822Z,27.95
2019-01-11T14:58:00.338Z,23.63
2019-01-11T15:00:29.893Z,23.30
2019-01-11T15:02:59.523Z,21.23
2019-01-11T15:05:29.000Z,28.07
2019-01-11T15:07:58.452Z,25.50
2019-01-11T15:10:28.015Z,34.47
2019-01-11T15:12:57.516Z,25.03
2019-01-11T15:15:26.997Z,20.40
2019-01-11T15:17:56.438Z,24.83
2019-01-11T15:20:26.002Z,22.10
2019-01-11T15:22:55.496Z,18.83
2019-01-11T15:25:24.944Z,18.37
2019-01-11T15:27:54.403Z,18.40
2019-01-11T15:30:23.827Z,20.93
2019-01-11T15:32:53.227Z,16.83
2019-01-11T15:35:22.641Z,23.10
2019-01-11T15:37:52.286Z,20.23
2019-01-11T15:40:36.270Z,19.97
2019-01-11T15:43:01.319Z,20.00
2019-01-11T15:45:30.885Z,24.43
2019-01-11T15:48:00.392Z,20.17
2019-01-11T15:50:52.044Z,19.07
2019-01-11T15:53:21.622Z,18.23
2019-01-11T15:55:56.170Z,17.47
2019-01-11T15:58:25.620Z,18.13
2019-01-11T16:00:55.085Z,23.23
2019-01-11T16:03:24.717Z,16.10
2019-01-11T16:06:28.301Z,16.73
2019-01-11T16:10:04.233Z,17.77
2019-01-11T16:13:14.015Z,16.77
2019-01-11T16:16:22.946Z,18.43
2019-01-11T16:18:55.166Z,16.33
2019-01-11T16:21:24.880Z,19.97
2019-01-11T16:23:54.542Z,18.13
2019-01-11T16:26:24.168Z,18.40
2019-01-11T16:28:53.696Z,18.57
2019-01-11T16:31:23.111Z,18.23
2019-01-11T16:33:52.592Z,19.17
2019-01-11T16:36:22.121Z,16.70
2019-01-11T16:38:51.591Z,20.40
2019-01-11T16:41:21.261Z,20.92
2019-01-11T16:43:50.639Z,17.33
2019-01-11T16:46:20.156Z,20.80
2019-01-11T16:48:49.699Z,17.33
2019-01-11T16:51:19.470Z,17.47
2019-01-11T16:53:49.307Z,20.80
2019-01-11T16:56:18.975Z,18.00
2019-01-11T16:58:48.511Z,20.00
2019-01-11T17:01:18.110Z,18.80
2019-01-11T17:03:47.740Z,16.53
2019-01-11T17:06:17.185Z,21.37
2019-01-11T17:08:47.042Z,19.97
2019-01-11T17:11:16.729Z,19.20
2019-01-11T17:13:46.399Z,17.73
2019-01-11T17:16:15.816Z,18.97
2019-01-11T17:18:45.348Z,18.67
2019-01-11T17:21:15.077Z,20.43
2019-01-11T17:23:44.928Z,21.20
2019-01-11T17:26:14.403Z,21.93
2019-01-11T17:28:43.861Z,20.80
2019-01-11T17:31:13.512Z,21.90
2019-01-11T17:33:43.299Z,19.40
2019-01-11T17:36:12.791Z,21.80
2019-01-11T17:38:42.572Z,19.97
2019-01-11T17:41:12.110Z,22.63
2019-01-11T17:43:41.896Z,25.48
2019-01-11T17:46:11.315Z,22.40
2019-01-11T17:48:40.715Z,21.87
2019-01-11T17:51:10.179Z,22.37
2019-01-11T17:53:39.568Z,23.17
2019-01-11T17:56:09.088Z,21.20
2019-01-11T17:58:38.597Z,19.50
2019-01-11T18:01:08.559Z,23.13
2019-01-11T18:03:37.996Z,25.37
2019-01-11T18:06:07.447Z,21.90
2019-01-11T18:08:36.922Z,22.93
2019-01-11T18:11:06.403Z,22.40
2019-01-11T18:13:35.892Z,22.53
2019-01-11T18:16:05.587Z,22.13
2019-01-11T18:18:34.979Z,26.17
2019-01-11T18:21:04.597Z,23.20
2019-01-11T18:23:34.200Z,23.33
2019-01-11T18:26:03.664Z,21.67
2019-01-11T18:28:34.314Z,19.83
2019-01-11T18:31:03.872Z,20.43
2019-01-11T18:33:33.375Z,18.93
2019-01-11T18:36:02.894Z,21.10
2019-01-11T18:38:32.426Z,22.70
2019-01-11T18:41:01.978Z,19.57
2019-01-11T18:43:31.475Z,17.70
2019-01-11T18:46:01.011Z,19.27
2019-01-11T18:48:30.441Z,20.43
2019-01-11T18:50:59.857Z,18.93
2019-01-11T18:53:29.308Z,19.50
2019-01-11T18:56:05.213Z,20.70
2019-01-11T18:58:29.987Z,19.20
2019-01-11T19:00:59.496Z,19.00
2019-01-11T19:03:29.030Z,23.57
2019-01-11T19:05:58.573Z,24.17
2019-01-11T19:08:28.152Z,23.00
2019-01-11T19:10:57.626Z,25.33
2019-01-11T19:13:27.134Z,33.97
2019-01-11T19:15:56.926Z,39.87
2019-01-11T19:18:26.760Z,33.73
2019-01-11T19:20:56.451Z,35.03
2019-01-11T19:23:26.592Z,28.42
2019-01-11T19:25:56.423Z,26.37
2019-01-11T19:28:26.009Z,23.97
2019-01-11T19:30:55.774Z,18.47
2019-01-11T19:33:25.666Z,19.20
2019-01-11T19:35:55.104Z,17.93
2019-01-11T19:38:24.497Z,19.57
2019-01-11T19:40:53.897Z,18.33
2019-01-11T19:43:23.622Z,16.17
2019-01-11T19:45:53.118Z,17.93
2019-01-11T19:48:22.463Z,31.63
2019-01-11T19:50:54.970Z,34.10
2019-01-11T19:53:27.620Z,23.87
2019-01-11T19:55:58.962Z,19.07
2019-01-11T19:58:26.625Z,22.83
2019-01-11T20:00:56.567Z,17.93
2019-01-11T20:03:26.428Z,19.43
2019-01-11T20:05:56.223Z,16.50
2019-01-11T20:08:26.206Z,18.67
2019-01-11T20:10:56.157Z,18.70
2019-01-11T20:13:25.646Z,23.10
2019-01-11T20:15:55.148Z,25.97
2019-01-11T20:18:24.624Z,23.87
2019-01-11T20:20:54.034Z,18.67
2019-01-11T20:23:23.652Z,23.63
2019-01-11T20:25:53.066Z,20.93
2019-01-11T20:28:22.756Z,21.63
2019-01-11T20:30:52.335Z,18.07
2019-01-11T20:33:25.919Z,17.23
2019-01-11T20:35:55.563Z,15.97
2019-01-11T20:38:41.116Z,16.50
2019-01-11T20:41:19.007Z,19.57
2019-01-11T20:43:48.607Z,15.53
2019-01-11T20:46:18.054Z,19.97
2019-01-11T20:48:47.423Z,20.83
2019-01-11T20:51:17.112Z,17.30
2019-01-11T20:53:49.264Z,20.33
2019-01-11T20:56:19.407Z,18.17
2019-01-11T20:58:49.436Z,18.50
2019-01-11T21:01:19.356Z,18.60
2019-01-11T21:03:48.949Z,18.47
2019-01-11T21:06:21.463Z,18.57
2019-01-11T21:08:50.931Z,22.37
2019-01-11T21:11:21.600Z,17.57
2019-01-11T21:13:51.142Z,17.00
2019-01-11T21:16:20.488Z,21.70
2019-01-11T21:18:50.172Z,18.20
2019-01-11T21:21:19.850Z,24.60
2019-01-11T21:23:50.004Z,24.57
2019-01-11T21:26:19.530Z,20.13
2019-01-11T21:28:48.973Z,20.40
2019-01-11T21:31:18.334Z,15.53
2019-01-11T21:33:47.701Z,15.70
2019-01-11T21:36:17.084Z,16.17
2019-01-11T21:38:46.470Z,15.93
2019-01-11T21:41:15.848Z,16.27
2019-01-11T21:43:45.305Z,17.07
2019-01-11T21:46:14.667Z,20.00
2019-01-11T21:48:44.033Z,15.03
2019-01-11T21:51:13.346Z,16.93
2019-01-11T21:53:43.063Z,17.33
2019-01-11T21:56:12.607Z,16.03
2019-01-11T21:58:42.402Z,16.13
2019-01-11T22:01:11.778Z,16.90
2019-01-11T22:03:41.118Z,17.20
2019-01-11T22:06:10.455Z,18.93
2019-01-11T22:08:39.874Z,14.90
2019-01-11T22:11:09.222Z,17.23
2019-01-11T22:13:38.590Z,18.53
2019-01-11T22:16:08.235Z,17.17
2019-01-11T22:18:37.583Z,17.40
2019-01-11T22:21:06.990Z,16.60
2019-01-11T22:23:36.326Z,16.37
2019-01-11T22:26:05.623Z,18.07
2019-01-11T22:28:35.320Z,16.03
2019-01-11T22:31:04.765Z,17.53
2019-01-11T22:33:34.139Z,16.93
2019-01-11T22:36:03.577Z,17.60
2019-01-11T22:38:32.973Z,16.20
2019-01-11T22:41:02.662Z,15.43
2019-01-11T22:43:37.082Z,17.43
2019-01-11T22:46:07.080Z,16.07
2019-01-11T22:48:36.547Z,18.47
2019-01-11T22:51:06.372Z,17.83
2019-01-11T22:53:35.819Z,15.37
2019-01-11T22:56:05.629Z,23.67
2019-01-11T22:58:35.323Z,20.87
2019-01-11T23:01:41.706Z,20.00
2019-01-11T23:04:11.093Z,19.57
2019-01-11T23:07:09.214Z,13.97
2019-01-11T23:10:08.946Z,13.13
2019-01-11T23:12:45.777Z,13.30
2019-01-11T23:15:29.316Z,16.60
2019-01-11T23:18:13.025Z,15.10
2019-01-11T23:20:42.380Z,14.77
2019-01-11T23:23:11.798Z,15.73
2019-01-11T23:25:41.238Z,16.47
2019-01-11T23:28:10.607Z,16.03
2019-01-11T23:30:39.987Z,11.13
2019-01-11T23:33:09.327Z,10.80
2019-01-11T23:35:38.750Z,11.00
2019-01-11T23:38:08.219Z,15.93
2019-01-11T23:40:37.614Z,18.50
2019-01-11T23:43:06.950Z,16.17
2019-01-11T23:45:36.353Z,15.83
2019-01-11T23:48:05.820Z,16.23
2019-01-11T23:50:35.230Z,15.13
2019-01-11T23:53:04.577Z,14.33
2019-01-11T23:55:33.974Z,15.53
2019-01-11T23:58:03.334Z,13.87
